createdAt,value
2019-01-25T00:00:52.015Z,48.57
2019-01-25T00:03:17.942Z,46.10
2019-01-25T00:05:43.942Z,46.30
2019-01-25T00:08:10.468Z,45.00
2019-01-25T00:10:36.398Z,40.47
2019-01-25T00:13:02.827Z,40.63
2019-01-25T00:15:28.788Z,38.23
2019-01-25T00:17:54.819Z,38.60
2019-01-25T00:20:20.740Z,39.10
2019-01-25T00:22:46.702Z,32.87
2019-01-25T00:25:13.642Z,37.70
2019-01-25T00:27:40.079Z,36.17
2019-01-25T00:30:12.135Z,36.83
2019-01-25T00:32:38.140Z,33.60
2019-01-25T00:35:06.657Z,32.97
2019-01-25T00:37:32.719Z,73.73
2019-01-25T00:40:05.977Z,29.97
2019-01-25T00:42:27.201Z,31.43
2019-01-25T00:44:53.168Z,32.40
2019-01-25T00:47:19.102Z,31.30
2019-01-25T00:49:45.223Z,34.60
2019-01-25T00:52:11.371Z,33.33
2019-01-25T00:54:37.708Z,36.90
2019-01-25T00:57:03.640Z,35.67
2019-01-25T00:59:29.602Z,37.30
2019-01-25T01:01:55.526Z,33.03
2019-01-25T01:04:21.452Z,38.20
2019-01-25T01:06:47.399Z,35.73
2019-01-25T01:09:13.364Z,39.80
2019-01-25T01:11:39.251Z,37.30
2019-01-25T01:14:05.451Z,42.30
2019-01-25T01:16:31.882Z,42.73
2019-01-25T01:18:59.720Z,40.33
2019-01-25T01:21:25.682Z,41.03
2019-01-25T01:23:51.606Z,41.77
2019-01-25T01:26:18.638Z,39.60
2019-01-25T01:28:44.605Z,47.87
2019-01-25T01:31:10.526Z,44.13
2019-01-25T01:33:36.512Z,47.90
2019-01-25T01:36:03.584Z,40.87
2019-01-25T01:38:29.518Z,42.30
2019-01-25T01:40:55.443Z,43.77
2019-01-25T01:43:21.503Z,48.57
2019-01-25T01:45:47.511Z,42.87
2019-01-25T01:48:13.666Z,46.70
2019-01-25T01:50:40.619Z,45.90
2019-01-25T01:53:06.551Z,48.07
2019-01-25T01:55:32.472Z,54.07
2019-01-25T01:57:58.479Z,51.73
2019-01-25T02:00:25.121Z,48.93
2019-01-25T02:02:51.647Z,45.50
2019-01-25T02:05:17.907Z,48.60
2019-01-25T02:07:44.137Z,42.17
2019-01-25T02:10:13.671Z,42.27
2019-01-25T02:12:39.638Z,41.30
2019-01-25T02:15:08.174Z,43.50
2019-01-25T02:17:34.097Z,44.23
2019-01-25T02:20:00.117Z,41.73
2019-01-25T02:22:26.105Z,41.30
2019-01-25T02:24:52.227Z,44.53
2019-01-25T02:27:18.216Z,36.07
2019-01-25T02:29:44.135Z,36.60
2019-01-25T02:32:10.065Z,38.67
2019-01-25T02:34:36.094Z,36.00
2019-01-25T02:37:02.319Z,39.17
2019-01-25T02:39:28.240Z,35.07
2019-01-25T02:41:55.007Z,35.67
2019-01-25T02:44:20.943Z,35.70
2019-01-25T02:46:46.863Z,34.73
2019-01-25T02:49:12.824Z,32.70
2019-01-25T02:51:38.753Z,35.70
2019-01-25T02:54:05.588Z,32.77
2019-01-25T02:56:31.541Z,35.27
2019-01-25T02:58:57.472Z,34.37
2019-01-25T03:01:23.392Z,29.93
2019-01-25T03:03:49.380Z,34.30
2019-01-25T03:06:15.312Z,36.43
2019-01-25T03:08:41.227Z,37.10
2019-01-25T03:11:08.686Z,36.67
2019-01-25T03:13:34.615Z,41.83
2019-01-25T03:16:00.539Z,41.60
2019-01-25T03:18:26.502Z,36.07
2019-01-25T03:20:52.726Z,44.37
2019-01-25T03:23:19.585Z,38.07
2019-01-25T03:25:46.072Z,40.87
2019-01-25T03:28:11.993Z,37.70
2019-01-25T03:30:37.921Z,36.43
2019-01-25T03:33:04.231Z,33.87
2019-01-25T03:35:30.409Z,36.20
2019-01-25T03:37:56.833Z,36.07
2019-01-25T03:40:24.801Z,40.30
2019-01-25T03:42:50.722Z,39.93
2019-01-25T03:45:17.242Z,38.17
2019-01-25T03:47:43.235Z,35.77
2019-01-25T03:50:21.248Z,38.30
2019-01-25T03:52:47.410Z,36.50
2019-01-25T03:55:14.339Z,33.93
2019-01-25T03:57:40.287Z,33.00
2019-01-25T04:00:15.632Z,35.00
2019-01-25T04:02:41.997Z,32.17
2019-01-25T04:05:10.717Z,34.47
2019-01-25T04:07:37.307Z,37.03
2019-01-25T04:10:07.045Z,33.67
2019-01-25T04:12:33.674Z,34.47
2019-01-25T04:14:59.636Z,36.50
2019-01-25T04:17:25.862Z,36.90
2019-01-25T04:19:51.788Z,51.10
2019-01-25T04:22:18.758Z,52.30
2019-01-25T04:24:44.678Z,50.77
2019-01-25T04:27:10.605Z,49.83
2019-01-25T04:29:36.594Z,47.90
2019-01-25T04:32:04.856Z,41.87
2019-01-25T04:34:30.787Z,47.00
2019-01-25T04:36:57.675Z,45.17
2019-01-25T04:39:23.600Z,46.27
2019-01-25T04:41:51.031Z,46.60
2019-01-25T04:44:17.014Z,43.40
2019-01-25T04:46:42.944Z,43.50
2019-01-25T04:49:08.930Z,46.60
2019-01-25T04:51:34.957Z,52.23
2019-01-25T04:54:00.880Z,39.93
2019-01-25T04:56:28.712Z,44.87
2019-01-25T04:58:55.002Z,41.20
2019-01-25T05:01:20.936Z,43.93
2019-01-25T05:03:46.871Z,50.23
2019-01-25T05:06:15.140Z,56.13
2019-01-25T05:08:41.094Z,64.30
2019-01-25T05:11:19.912Z,59.27
2019-01-25T05:13:43.507Z,65.27
2019-01-25T05:16:12.248Z,66.13
2019-01-25T05:18:38.247Z,72.23
2019-01-25T05:21:05.861Z,73.30
2019-01-25T05:23:31.783Z,72.70
2019-01-25T05:25:57.710Z,71.73
2019-01-25T05:28:23.670Z,68.60
2019-01-25T05:30:55.143Z,82.20
2019-01-25T05:33:21.078Z,79.57
2019-01-25T05:35:47.261Z,93.50
2019-01-25T05:38:13.368Z,96.40
2019-01-25T05:40:39.304Z,99.97
2019-01-25T05:43:05.265Z,100.60
2019-01-25T05:45:31.201Z,104.90
2019-01-25T05:47:57.126Z,107.93
2019-01-25T05:50:23.071Z,102.47
2019-01-25T05:52:49.217Z,112.23
2019-01-25T05:55:17.565Z,120.60
2019-01-25T05:57:44.262Z,130.37
2019-01-25T06:00:11.191Z,131.07
2019-01-25T06:02:37.336Z,118.73
2019-01-25T06:05:05.159Z,120.17
2019-01-25T06:07:31.089Z,121.17
2019-01-25T06:09:57.011Z,132.87
2019-01-25T06:12:22.973Z,130.07
2019-01-25T06:14:49.121Z,138.43
2019-01-25T06:17:15.044Z,140.93
2019-01-25T06:19:41.059Z,140.90
2019-01-25T06:22:07.102Z,150.50
2019-01-25T06:24:33.046Z,164.20
2019-01-25T06:27:00.036Z,147.83
2019-01-25T06:29:29.375Z,154.73
2019-01-25T06:31:55.330Z,155.03
2019-01-25T06:34:21.694Z,140.33
2019-01-25T06:36:47.618Z,140.67
2019-01-25T06:39:13.623Z,131.20
2019-01-25T06:41:44.045Z,112.37
2019-01-25T06:44:07.470Z,97.20
2019-01-25T06:46:35.016Z,90.97
2019-01-25T06:49:00.987Z,96.87
2019-01-25T06:51:27.152Z,85.17
2019-01-25T06:53:53.395Z,79.17
2019-01-25T06:56:20.123Z,82.93
2019-01-25T06:58:48.035Z,136.90
2019-01-25T07:01:15.963Z,73.60
2019-01-25T07:03:42.140Z,53.50
2019-01-25T07:06:08.375Z,50.93
2019-01-25T07:08:35.208Z,54.87
2019-01-25T07:11:01.235Z,61.73
2019-01-25T07:13:27.308Z,73.33
2019-01-25T07:15:53.188Z,55.67
2019-01-25T07:18:19.147Z,46.23
2019-01-25T07:20:45.178Z,30.03
2019-01-25T07:23:11.408Z,32.23
2019-01-25T07:25:37.489Z,23.17
2019-01-25T07:28:03.552Z,26.73
2019-01-25T07:30:32.212Z,22.00
2019-01-25T07:32:58.488Z,22.33
2019-01-25T07:35:24.396Z,20.67
2019-01-25T07:37:50.324Z,29.07
2019-01-25T07:40:17.317Z,41.90
2019-01-25T07:42:43.309Z,29.00
2019-01-25T07:45:11.013Z,33.63
2019-01-25T07:47:37.730Z,40.00
2019-01-25T07:50:09.875Z,29.37
2019-01-25T07:52:35.942Z,28.07
2019-01-25T07:55:02.928Z,22.90
2019-01-25T07:57:28.889Z,22.13
2019-01-25T07:59:54.904Z,25.03
2019-01-25T08:02:20.903Z,22.40
2019-01-25T08:04:48.005Z,20.50
2019-01-25T08:07:14.193Z,23.17
2019-01-25T08:09:40.146Z,22.10
2019-01-25T08:12:07.504Z,19.73
2019-01-25T08:14:34.096Z,18.67
2019-01-25T08:17:00.053Z,19.03
2019-01-25T08:19:26.459Z,31.37
2019-01-25T08:21:52.410Z,24.17
2019-01-25T08:24:18.426Z,18.53
2019-01-25T08:26:44.417Z,23.93
2019-01-25T08:29:10.540Z,19.97
2019-01-25T08:31:36.754Z,25.67
2019-01-25T08:34:03.171Z,25.63
2019-01-25T08:36:29.383Z,33.63
2019-01-25T08:38:55.993Z,65.30
2019-01-25T08:41:22.842Z,51.57
2019-01-25T08:43:48.842Z,28.77
2019-01-25T08:46:14.821Z,54.37
2019-01-25T08:48:40.730Z,29.47
2019-01-25T08:51:06.649Z,32.03
2019-01-25T08:53:32.711Z,27.07
2019-01-25T08:55:58.685Z,25.27
2019-01-25T08:58:24.644Z,25.50
2019-01-25T09:00:51.846Z,22.60
2019-01-25T09:03:18.004Z,34.10
2019-01-25T09:05:44.227Z,26.97
2019-01-25T09:08:10.305Z,25.57
2019-01-25T09:10:36.234Z,26.67
2019-01-25T09:13:02.159Z,29.40
2019-01-25T09:15:30.650Z,40.87
2019-01-25T09:17:56.588Z,43.10
2019-01-25T09:20:22.711Z,36.90
2019-01-25T09:22:48.669Z,33.67
2019-01-25T09:25:15.595Z,37.23
2019-01-25T09:27:41.541Z,29.07
2019-01-25T09:30:11.009Z,25.97
2019-01-25T09:32:37.242Z,26.47
2019-01-25T09:35:04.075Z,22.17
2019-01-25T09:37:30.152Z,22.60
2019-01-25T09:39:56.119Z,25.50
2019-01-25T09:42:22.111Z,29.27
2019-01-25T09:44:48.282Z,23.00
2019-01-25T09:47:14.212Z,18.73
2019-01-25T09:49:42.062Z,18.33
2019-01-25T09:52:08.228Z,20.53
2019-01-25T09:54:34.177Z,23.50
2019-01-25T09:57:01.317Z,19.60
2019-01-25T09:59:27.316Z,19.30
2019-01-25T10:01:53.244Z,28.50
2019-01-25T10:04:19.268Z,22.60
2019-01-25T10:06:46.429Z,21.13
2019-01-25T10:09:12.431Z,20.47
2019-01-25T10:11:38.408Z,17.67
2019-01-25T10:14:04.679Z,12.27
2019-01-25T10:16:31.419Z,17.37
2019-01-25T10:18:59.285Z,16.60
2019-01-25T10:21:25.272Z,16.73
2019-01-25T10:23:51.212Z,16.70
2019-01-25T10:26:17.139Z,28.17
2019-01-25T10:28:43.093Z,18.70
2019-01-25T10:31:09.431Z,19.37
2019-01-25T10:33:35.616Z,16.97
2019-01-25T10:36:02.693Z,29.20
2019-01-25T10:38:28.637Z,43.13
2019-01-25T10:40:54.562Z,18.47
2019-01-25T10:43:20.861Z,14.37
2019-01-25T10:45:47.278Z,19.50
2019-01-25T10:48:13.321Z,14.73
2019-01-25T10:50:40.163Z,21.40
2019-01-25T10:53:09.832Z,25.27
2019-01-25T10:55:35.902Z,18.63
2019-01-25T10:58:03.195Z,20.63
2019-01-25T11:00:29.405Z,20.13
2019-01-25T11:02:58.413Z,24.10
2019-01-25T11:05:27.245Z,32.93
2019-01-25T11:07:53.198Z,20.27
2019-01-25T11:10:19.120Z,18.37
2019-01-25T11:12:45.590Z,15.63
2019-01-25T11:15:14.843Z,18.70
2019-01-25T11:17:41.743Z,14.17
2019-01-25T11:20:11.062Z,21.07
2019-01-25T11:22:36.986Z,20.03
2019-01-25T11:25:06.712Z,23.27
2019-01-25T11:27:32.917Z,23.93
2019-01-25T11:30:11.767Z,19.43
2019-01-25T11:32:37.723Z,21.90
2019-01-25T11:35:04.768Z,22.77
2019-01-25T11:37:31.209Z,19.37
2019-01-25T11:39:57.184Z,23.67
2019-01-25T11:42:24.008Z,24.97
2019-01-25T11:44:50.196Z,20.97
2019-01-25T11:47:19.242Z,23.70
2019-01-25T11:49:45.473Z,30.60
2019-01-25T11:52:11.461Z,28.57
2019-01-25T11:54:37.445Z,23.87
2019-01-25T11:57:03.399Z,26.63
2019-01-25T11:59:30.324Z,28.93
2019-01-25T12:01:56.593Z,19.77
2019-01-25T12:04:22.533Z,20.47
2019-01-25T12:06:48.467Z,21.47
2019-01-25T12:09:14.460Z,22.13
2019-01-25T12:11:40.595Z,22.83
2019-01-25T12:14:06.524Z,27.47
2019-01-25T12:16:32.712Z,37.87
2019-01-25T12:18:59.060Z,58.37
2019-01-25T12:21:25.003Z,35.27
2019-01-25T12:23:51.071Z,24.00
2019-01-25T12:26:17.010Z,22.70
2019-01-25T12:28:44.630Z,38.60
2019-01-25T12:31:10.618Z,34.70
2019-01-25T12:33:36.549Z,19.70
2019-01-25T12:36:02.702Z,16.97
2019-01-25T12:38:28.651Z,20.53
2019-01-25T12:40:55.007Z,37.50
2019-01-25T12:43:24.198Z,38.77
2019-01-25T12:45:52.828Z,24.93
2019-01-25T12:48:18.755Z,22.60
2019-01-25T12:50:49.170Z,22.33
2019-01-25T12:53:15.502Z,23.83
2019-01-25T12:55:41.520Z,25.23
2019-01-25T12:58:07.885Z,22.97
2019-01-25T13:00:34.401Z,21.90
2019-01-25T13:03:00.333Z,29.97
2019-01-25T13:05:26.587Z,31.33
2019-01-25T13:07:52.549Z,32.40
2019-01-25T13:10:21.318Z,30.53
2019-01-25T13:12:47.452Z,32.03
2019-01-25T13:15:13.642Z,29.10
2019-01-25T13:17:39.693Z,32.27
2019-01-25T13:20:09.427Z,32.63
2019-01-25T13:22:35.776Z,27.37
2019-01-25T13:25:01.705Z,31.53
2019-01-25T13:27:27.643Z,32.20
2019-01-25T13:29:53.604Z,31.37
2019-01-25T13:32:19.532Z,34.90
2019-01-25T13:34:45.671Z,34.83
2019-01-25T13:37:11.675Z,31.20
2019-01-25T13:39:37.921Z,31.57
2019-01-25T13:42:03.865Z,34.67
2019-01-25T13:44:30.394Z,33.57
2019-01-25T13:46:56.513Z,38.30
2019-01-25T13:49:22.487Z,38.83
2019-01-25T13:51:48.472Z,42.07
2019-01-25T13:54:14.393Z,45.80
2019-01-25T13:56:40.736Z,45.27
2019-01-25T13:59:07.848Z,44.37
2019-01-25T14:01:34.676Z,46.53
2019-01-25T14:04:00.925Z,74.67
2019-01-25T14:06:26.888Z,42.50
2019-01-25T14:08:52.832Z,104.73
2019-01-25T14:11:18.768Z,154.97
2019-01-25T14:13:46.911Z,49.80
2019-01-25T14:16:12.591Z,84.17
2019-01-25T14:18:38.521Z,30.10
2019-01-25T14:21:04.523Z,28.07
2019-01-25T14:23:30.458Z,37.23
2019-01-25T14:25:56.442Z,32.77
2019-01-25T14:28:22.412Z,32.57
2019-01-25T14:30:49.060Z,34.73
2019-01-25T14:33:15.098Z,44.90
2019-01-25T14:35:41.900Z,47.00
2019-01-25T14:38:08.032Z,63.17
2019-01-25T14:40:34.363Z,55.90
2019-01-25T14:43:00.376Z,64.50
2019-01-25T14:45:26.607Z,65.93
2019-01-25T14:47:53.511Z,68.77
2019-01-25T14:50:28.782Z,59.30
2019-01-25T14:52:54.717Z,44.10
2019-01-25T14:55:20.644Z,36.97
2019-01-25T14:57:46.608Z,40.17
2019-01-25T15:00:14.349Z,39.07
2019-01-25T15:02:40.295Z,73.63
2019-01-25T15:05:12.530Z,99.27
2019-01-25T15:07:38.477Z,66.77
2019-01-25T15:10:08.210Z,55.57
2019-01-25T15:12:34.363Z,49.20
2019-01-25T15:15:00.603Z,49.40
2019-01-25T15:17:26.523Z,36.00
2019-01-25T15:19:52.504Z,43.87
2019-01-25T15:22:18.635Z,61.33
2019-01-25T15:24:44.878Z,38.60
2019-01-25T15:27:11.768Z,34.00
2019-01-25T15:29:37.688Z,33.10
2019-01-25T15:32:03.814Z,40.23
2019-01-25T15:34:29.903Z,41.10
2019-01-25T15:36:55.840Z,42.37
2019-01-25T15:39:21.770Z,29.50
2019-01-25T15:41:48.211Z,25.43
2019-01-25T15:44:14.482Z,30.87
2019-01-25T15:46:40.434Z,42.50
2019-01-25T15:49:07.167Z,54.97
2019-01-25T15:51:33.521Z,90.00
2019-01-25T15:53:59.424Z,50.30
2019-01-25T15:56:25.379Z,64.73
2019-01-25T15:58:51.307Z,35.57
2019-01-25T16:01:17.743Z,37.97
2019-01-25T16:03:44.027Z,54.50
2019-01-25T16:06:10.377Z,53.70
2019-01-25T16:08:36.309Z,36.27
2019-01-25T16:11:03.341Z,33.60
2019-01-25T16:13:29.598Z,39.07
2019-01-25T16:15:55.598Z,46.07
2019-01-25T16:18:21.691Z,38.77
2019-01-25T16:20:48.256Z,42.67
2019-01-25T16:23:14.189Z,40.47
2019-01-25T16:25:40.152Z,37.57
2019-01-25T16:28:06.126Z,35.67
2019-01-25T16:30:33.956Z,39.73
2019-01-25T16:33:00.299Z,39.47
2019-01-25T16:35:29.342Z,107.73
2019-01-25T16:37:55.827Z,64.10
2019-01-25T16:40:25.224Z,67.77
2019-01-25T16:42:51.165Z,61.43
2019-01-25T16:45:22.849Z,51.03
2019-01-25T16:47:53.645Z,73.30
2019-01-25T16:50:23.794Z,62.77
2019-01-25T16:52:54.816Z,63.50
2019-01-25T16:55:23.314Z,51.90
2019-01-25T16:57:49.550Z,52.93
2019-01-25T17:00:21.476Z,44.60
2019-01-25T17:02:47.659Z,38.50
2019-01-25T17:05:14.019Z,39.27
2019-01-25T17:07:39.947Z,41.10
2019-01-25T17:10:13.720Z,44.97
2019-01-25T17:12:44.238Z,48.87
2019-01-25T17:15:13.923Z,43.00
2019-01-25T17:17:39.942Z,55.23
2019-01-25T17:20:08.989Z,59.67
2019-01-25T17:22:34.917Z,64.13
2019-01-25T17:25:00.889Z,74.83
2019-01-25T17:27:26.827Z,65.57
2019-01-25T17:29:52.763Z,52.37
2019-01-25T17:32:19.039Z,56.13
2019-01-25T17:34:44.992Z,55.50
2019-01-25T17:37:11.131Z,54.03
2019-01-25T17:39:37.276Z,47.97
2019-01-25T17:42:03.723Z,55.13
2019-01-25T17:44:29.671Z,59.17
2019-01-25T17:46:55.674Z,44.80
2019-01-25T17:49:21.964Z,39.83
2019-01-25T17:51:47.961Z,53.83
2019-01-25T17:54:13.917Z,71.77
2019-01-25T17:56:44.660Z,51.70
2019-01-25T17:59:10.610Z,53.97
2019-01-25T18:01:36.597Z,45.53
2019-01-25T18:04:04.273Z,45.90
2019-01-25T18:06:30.440Z,50.67
2019-01-25T18:08:56.741Z,75.93
2019-01-25T18:11:23.784Z,96.23
2019-01-25T18:13:51.031Z,63.67
2019-01-25T18:16:17.236Z,47.60
2019-01-25T18:18:43.194Z,61.40
2019-01-25T18:21:10.010Z,96.27
2019-01-25T18:23:36.025Z,63.67
2019-01-25T18:26:02.056Z,91.70
2019-01-25T18:28:31.809Z,87.20
2019-01-25T18:31:04.647Z,80.63
2019-01-25T18:33:30.592Z,61.10
2019-01-25T18:35:56.534Z,56.17
2019-01-25T18:38:22.621Z,65.57
2019-01-25T18:40:48.581Z,129.80
2019-01-25T18:43:15.216Z,46.97
2019-01-25T18:45:42.435Z,104.50
2019-01-25T18:48:08.373Z,68.90
2019-01-25T18:50:34.433Z,127.13
2019-01-25T18:53:00.746Z,91.53
2019-01-25T18:55:26.724Z,112.60
2019-01-25T18:57:52.671Z,139.70
2019-01-25T19:00:21.324Z,127.17
2019-01-25T19:02:47.285Z,72.70
2019-01-25T19:05:15.424Z,84.47
2019-01-25T19:07:42.469Z,78.37
2019-01-25T19:10:26.287Z,71.33
2019-01-25T19:12:52.261Z,50.87
2019-01-25T19:15:22.208Z,57.80
2019-01-25T19:17:48.258Z,50.57
2019-01-25T19:20:15.194Z,123.67
2019-01-25T19:22:41.130Z,70.83
2019-01-25T19:25:09.593Z,51.93
2019-01-25T19:27:35.600Z,51.57
2019-01-25T19:30:04.754Z,64.97
2019-01-25T19:32:30.711Z,72.43
2019-01-25T19:34:56.754Z,85.47
2019-01-25T19:37:24.495Z,62.27
2019-01-25T19:39:50.759Z,75.07
2019-01-25T19:42:16.780Z,56.73
2019-01-25T19:44:42.714Z,39.77
2019-01-25T19:47:08.646Z,51.03
2019-01-25T19:49:39.620Z,49.77
2019-01-25T19:52:05.793Z,43.13
2019-01-25T19:54:32.029Z,91.30
2019-01-25T19:56:58.602Z,75.93
2019-01-25T19:59:26.788Z,71.17
2019-01-25T20:01:52.934Z,59.77
2019-01-25T20:04:18.990Z,63.63
2019-01-25T20:06:45.042Z,51.93
2019-01-25T20:09:11.059Z,44.53
2019-01-25T20:11:37.808Z,51.27
2019-01-25T20:14:06.626Z,58.77
2019-01-25T20:16:37.290Z,46.23
2019-01-25T20:19:03.640Z,42.33
2019-01-25T20:21:29.982Z,46.10
2019-01-25T20:23:57.058Z,50.33
2019-01-25T20:26:23.420Z,46.77
2019-01-25T20:28:49.463Z,47.67
2019-01-25T20:31:15.499Z,33.80
2019-01-25T20:33:41.658Z,43.53
2019-01-25T20:36:08.681Z,46.57
2019-01-25T20:38:45.265Z,42.13
2019-01-25T20:41:11.290Z,48.00
2019-01-25T20:43:37.228Z,52.73
2019-01-25T20:46:06.284Z,53.07
2019-01-25T20:48:32.384Z,52.80
2019-01-25T20:50:58.308Z,54.83
2019-01-25T20:53:24.669Z,51.37
2019-01-25T20:55:54.433Z,49.03
2019-01-25T20:58:20.378Z,45.30
2019-01-25T21:00:46.425Z,48.73
2019-01-25T21:03:14.004Z,48.57
2019-01-25T21:05:40.273Z,45.20
2019-01-25T21:08:06.217Z,53.40
2019-01-25T21:10:32.205Z,50.53
2019-01-25T21:12:58.276Z,50.43
2019-01-25T21:15:26.120Z,50.90
2019-01-25T21:17:52.649Z,49.33
2019-01-25T21:20:27.392Z,47.83
2019-01-25T21:22:53.333Z,48.07
2019-01-25T21:25:19.427Z,45.93
2019-01-25T21:27:45.397Z,40.87
2019-01-25T21:30:17.566Z,46.33
2019-01-25T21:32:43.732Z,44.77
2019-01-25T21:35:09.968Z,44.37
2019-01-25T21:37:36.214Z,85.40
2019-01-25T21:40:08.556Z,46.10
2019-01-25T21:42:33.846Z,43.87
2019-01-25T21:44:59.847Z,43.10
2019-01-25T21:47:25.824Z,48.27
2019-01-25T21:49:54.798Z,49.70
2019-01-25T21:52:22.640Z,43.33
2019-01-25T21:54:50.045Z,40.27
2019-01-25T21:57:16.050Z,40.90
2019-01-25T21:59:41.998Z,40.27
2019-01-25T22:02:08.269Z,47.00
2019-01-25T22:04:34.405Z,46.50
2019-01-25T22:07:02.394Z,43.57
2019-01-25T22:09:28.405Z,52.70
2019-01-25T22:11:54.389Z,42.77
2019-01-25T22:14:20.413Z,51.20
2019-01-25T22:16:46.516Z,50.40
2019-01-25T22:19:12.459Z,49.23
2019-01-25T22:21:38.525Z,56.10
2019-01-25T22:24:04.660Z,62.67
2019-01-25T22:26:32.130Z,47.43
2019-01-25T22:28:58.125Z,57.73
2019-01-25T22:31:24.086Z,38.23
2019-01-25T22:33:50.089Z,44.37
2019-01-25T22:36:16.204Z,45.90
2019-01-25T22:38:42.517Z,37.33
2019-01-25T22:41:08.456Z,52.47
2019-01-25T22:43:34.499Z,36.87
2019-01-25T22:46:13.100Z,47.30
2019-01-25T22:48:39.042Z,41.33
2019-01-25T22:51:05.206Z,38.53
2019-01-25T22:53:31.204Z,40.20
2019-01-25T22:55:57.131Z,43.67
2019-01-25T22:58:26.919Z,40.57
2019-01-25T23:01:06.413Z,50.73
2019-01-25T23:03:40.043Z,52.20
2019-01-25T23:06:33.625Z,45.10
2019-01-25T23:09:05.176Z,43.00
2019-01-25T23:11:35.797Z,43.67
2019-01-25T23:14:16.306Z,48.80
2019-01-25T23:16:47.299Z,42.87
2019-01-25T23:19:14.982Z,43.03
2019-01-25T23:21:41.312Z,40.73
2019-01-25T23:24:10.263Z,59.20
2019-01-25T23:26:42.560Z,47.57
2019-01-25T23:29:08.617Z,40.53
2019-01-25T23:31:38.693Z,43.93
2019-01-25T23:34:08.030Z,41.33
2019-01-25T23:36:35.420Z,40.13
2019-01-25T23:39:06.043Z,40.17
2019-01-25T23:41:33.672Z,42.53
2019-01-25T23:43:59.616Z,45.17
2019-01-25T23:46:30.803Z,41.63
2019-01-25T23:48:56.766Z,37.43
2019-01-25T23:51:27.664Z,42.07
2019-01-25T23:53:57.509Z,43.23
2019-01-25T23:56:28.038Z,41.90
2019-01-25T23:58:55.549Z,44.90
